createdAt,value
2023-04-11T00:01:32.571Z,93254.69
2023-04-11T00:04:00.991Z,93244.94
2023-04-11T00:06:29.224Z,93245.84
2023-04-11T00:08:57.533Z,93241.81
2023-04-11T00:11:26.320Z,93241.59
2023-04-11T00:13:57.832Z,93240.88
2023-04-11T00:16:26.886Z,93247.91
2023-04-11T00:18:57.427Z,93240.06
2023-04-11T00:21:25.751Z,93235.81
2023-04-11T00:23:54.389Z,93242.81
2023-04-11T00:26:22.409Z,93245.28
2023-04-11T00:28:50.541Z,93246.31
2023-04-11T00:31:18.452Z,93243.31
2023-04-11T00:33:46.580Z,93239.72
2023-04-11T00:36:14.698Z,93233.72
2023-04-11T00:38:42.628Z,93230.03
2023-04-11T00:41:11.235Z,93221.63
2023-04-11T00:43:39.158Z,93233.59
2023-04-11T00:46:10.017Z,93230.06
2023-04-11T00:48:38.513Z,93226.47
2023-04-11T00:51:06.651Z,93227.38
2023-04-11T00:53:38.183Z,93228.16
2023-04-11T00:56:07.107Z,93230.81
2023-04-11T00:58:37.753Z,93223.00
2023-04-11T01:01:16.884Z,93227.59
2023-04-11T01:03:48.523Z,93220.69
2023-04-11T01:06:20.951Z,93213.78
2023-04-11T01:08:50.285Z,93223.34
2023-04-11T01:11:20.397Z,93227.50
2023-04-11T01:13:50.310Z,93220.44
2023-04-11T01:16:22.045Z,93215.84
2023-04-11T01:18:50.190Z,93211.69
2023-04-11T01:21:19.861Z,93222.13
2023-04-11T01:23:53.006Z,93222.25
2023-04-11T01:26:21.642Z,93225.13
2023-04-11T01:28:49.571Z,93218.91
2023-04-11T01:31:17.975Z,93224.66
2023-04-11T01:33:46.125Z,93219.59
2023-04-11T01:36:14.198Z,93219.69
2023-04-11T01:38:42.185Z,93219.13
2023-04-11T01:41:11.300Z,93208.44
2023-04-11T01:43:39.594Z,93217.97
2023-04-11T01:46:07.921Z,93204.50
2023-04-11T01:48:39.203Z,93212.03
2023-04-11T01:51:07.739Z,93200.09
2023-04-11T01:53:35.538Z,93206.31
2023-04-11T01:56:03.840Z,93202.66
2023-04-11T01:58:31.692Z,93199.66
2023-04-11T02:00:59.674Z,93197.50
2023-04-11T02:03:27.947Z,93199.22
2023-04-11T02:05:56.538Z,93201.50
2023-04-11T02:08:24.696Z,93193.19
2023-04-11T02:10:52.713Z,93206.53
2023-04-11T02:13:20.531Z,93197.56
2023-04-11T02:15:48.725Z,93196.78
2023-04-11T02:18:16.966Z,93184.69
2023-04-11T02:20:45.051Z,93205.16
2023-04-11T02:23:13.074Z,93205.03
2023-04-11T02:25:41.442Z,93201.94
2023-04-11T02:28:09.337Z,93201.34
2023-04-11T02:30:37.288Z,93200.88
2023-04-11T02:33:05.263Z,93202.28
2023-04-11T02:35:34.251Z,93204.16
2023-04-11T02:38:02.447Z,93188.97
2023-04-11T02:40:31.373Z,93195.78
2023-04-11T02:43:01.300Z,93205.56
2023-04-11T02:45:30.086Z,93203.84
2023-04-11T02:47:58.741Z,93187.28
2023-04-11T02:50:27.328Z,93201.63
2023-04-11T02:55:56.303Z,93194.69
2023-04-11T02:58:26.155Z,93190.75
2023-04-11T03:00:57.767Z,93188.56
2023-04-11T03:03:26.602Z,93184.75
2023-04-11T03:05:55.005Z,93179.72
2023-04-11T03:08:25.047Z,93179.47
2023-04-11T03:10:54.720Z,93175.09
2023-04-11T03:13:26.434Z,93178.09
2023-04-11T03:15:55.061Z,93176.94
2023-04-11T03:18:26.728Z,93170.50
2023-04-11T03:20:56.315Z,93164.06
2023-04-11T03:23:24.539Z,93164.88
2023-04-11T03:25:54.829Z,93177.53
2023-04-11T03:28:24.341Z,93167.06
2023-04-11T03:30:53.303Z,93176.81
2023-04-11T03:33:26.849Z,93176.59
2023-04-11T03:35:54.949Z,93183.16
2023-04-11T03:38:22.981Z,93188.22
2023-04-11T03:40:50.916Z,93181.53
2023-04-11T03:43:22.075Z,93181.28
2023-04-11T03:45:52.026Z,93181.50
2023-04-11T03:48:52.746Z,93177.97
2023-04-11T03:51:22.437Z,93171.19
2023-04-11T03:53:57.959Z,93173.16
2023-04-11T03:56:39.154Z,93171.88
2023-04-11T03:59:10.397Z,93172.00
2023-04-11T04:01:51.669Z,93174.88
2023-04-11T04:04:19.591Z,93179.00
2023-04-11T04:06:57.053Z,93178.44
2023-04-11T04:09:32.934Z,93181.63
2023-04-11T04:12:01.924Z,93177.25
2023-04-11T04:14:46.830Z,93165.44
2023-04-11T04:17:17.760Z,93177.81
2023-04-11T04:19:45.964Z,93167.50
2023-04-11T04:22:17.942Z,93179.66
2023-04-11T04:24:53.203Z,93182.41
2023-04-11T04:27:25.327Z,93178.28
2023-04-11T04:30:03.542Z,93170.00
2023-04-11T04:32:46.445Z,93174.59
2023-04-11T04:35:16.943Z,93175.63
2023-04-11T04:37:46.054Z,93169.88
2023-04-11T04:40:38.337Z,93167.47
2023-04-11T04:43:11.783Z,93177.78
2023-04-11T04:45:49.647Z,93172.25
2023-04-11T04:48:25.805Z,93163.66
2023-04-11T04:50:54.430Z,93168.94
2023-04-11T04:53:22.336Z,93166.63
2023-04-11T04:55:55.292Z,93161.09
2023-04-11T04:58:24.022Z,93163.84
2023-04-11T05:00:56.294Z,93167.31
2023-04-11T05:03:35.019Z,93159.88
2023-04-11T05:06:09.579Z,93160.09
2023-04-11T05:08:38.719Z,93159.66
2023-04-11T05:11:10.004Z,93157.81
2023-04-11T05:13:38.163Z,93158.41
2023-04-11T05:16:07.452Z,93154.94
2023-04-11T05:18:35.713Z,93155.06
2023-04-11T05:21:07.503Z,93165.53
2023-04-11T05:23:38.980Z,93157.25
2023-04-11T05:26:08.682Z,93156.78
2023-04-11T05:28:38.233Z,93154.94
2023-04-11T05:31:12.405Z,93160.84
2023-04-11T05:33:42.355Z,93158.06
2023-04-11T05:36:14.664Z,93149.91
2023-04-11T05:38:44.084Z,93161.88
2023-04-11T05:41:12.166Z,93140.94
2023-04-11T05:43:40.186Z,93151.63
2023-04-11T05:46:10.799Z,93137.00
2023-04-11T05:48:39.518Z,93142.97
2023-04-11T05:51:08.427Z,93147.75
2023-04-11T05:53:36.254Z,93143.78
2023-04-11T05:56:04.248Z,93135.72
2023-04-11T05:58:32.259Z,93138.44
2023-04-11T06:01:01.038Z,93135.88
2023-04-11T06:03:29.139Z,93130.34
2023-04-11T06:05:57.187Z,93134.59
2023-04-11T06:08:25.130Z,93139.28
2023-04-11T06:10:53.227Z,93135.38
2023-04-11T06:13:21.416Z,93136.16
2023-04-11T06:15:49.758Z,93128.72
2023-04-11T06:18:17.686Z,93125.41
2023-04-11T06:20:47.285Z,93136.44
2023-04-11T06:23:15.300Z,93128.78
2023-04-11T06:25:43.359Z,93117.47
2023-04-11T06:28:11.497Z,93127.28
2023-04-11T06:30:39.446Z,93120.41
2023-04-11T06:33:07.335Z,93121.91
2023-04-11T06:35:36.389Z,93127.13
2023-04-11T06:38:04.281Z,93130.22
2023-04-11T06:40:32.254Z,93106.31
2023-04-11T06:43:02.011Z,93114.25
2023-04-11T06:45:31.779Z,93107.56
2023-04-11T06:47:59.849Z,93110.09
2023-04-11T06:50:27.893Z,93117.53
2023-04-11T06:52:56.164Z,93118.22
2023-04-11T06:55:24.288Z,93124.94
2023-04-11T06:57:52.530Z,93128.31
2023-04-11T07:00:21.338Z,93116.84
2023-04-11T07:02:49.509Z,93112.25
2023-04-11T07:05:17.891Z,93111.75
2023-04-11T07:07:46.030Z,93119.06
2023-04-11T07:10:13.892Z,93112.97
2023-04-11T07:12:41.927Z,93111.84
2023-04-11T07:15:10.459Z,93112.59
2023-04-11T07:17:38.442Z,93119.56
2023-04-11T07:20:09.547Z,93103.44
2023-04-11T07:22:37.914Z,93105.84
2023-04-11T07:25:06.196Z,93109.81
2023-04-11T07:27:36.461Z,93112.47
2023-04-11T07:30:05.126Z,93103.81
2023-04-11T07:32:33.175Z,93105.97
2023-04-11T07:35:01.430Z,93101.53
2023-04-11T07:37:31.264Z,93098.19
2023-04-11T07:39:59.227Z,93084.97
2023-04-11T07:42:27.149Z,93087.81
2023-04-11T07:44:55.165Z,93090.53
2023-04-11T07:47:23.305Z,93089.28
2023-04-11T07:49:51.395Z,93086.66
2023-04-11T07:52:19.271Z,93081.88
2023-04-11T07:54:47.308Z,93081.53
2023-04-11T07:57:15.174Z,93085.53
2023-04-11T07:59:43.751Z,93083.13
2023-04-11T08:02:11.745Z,93080.81
2023-04-11T08:04:39.930Z,93081.59
2023-04-11T08:07:07.858Z,93080.41
2023-04-11T08:09:37.799Z,93064.25
2023-04-11T08:12:06.415Z,93063.72
2023-04-11T08:14:34.477Z,93064.53
2023-04-11T08:17:02.774Z,93069.28
2023-04-11T08:19:31.623Z,93062.53
2023-04-11T08:21:59.590Z,93064.59
2023-04-11T08:24:27.403Z,93059.03
2023-04-11T08:26:55.744Z,93063.81
2023-04-11T08:29:23.679Z,93058.34
2023-04-11T08:31:51.845Z,93058.13
2023-04-11T08:34:19.737Z,93054.25
2023-04-11T08:36:47.595Z,93053.56
2023-04-11T08:39:15.845Z,93038.66
2023-04-11T08:41:43.783Z,93047.34
2023-04-11T08:44:13.164Z,93039.13
2023-04-11T08:46:42.868Z,93043.91
2023-04-11T08:49:11.390Z,93045.56
2023-04-11T08:51:43.765Z,93038.97
2023-04-11T08:54:12.372Z,93031.50
2023-04-11T08:56:43.324Z,93028.31
2023-04-11T08:59:11.337Z,92993.50
2023-04-11T09:01:41.065Z,93034.09
2023-04-11T09:04:10.805Z,93030.09
2023-04-11T09:06:40.492Z,93019.44
2023-04-11T09:09:09.862Z,93019.25
2023-04-11T09:11:55.312Z,93004.03
2023-04-11T09:14:27.313Z,93009.88
2023-04-11T09:17:07.159Z,93002.66
2023-04-11T09:19:35.789Z,92998.63
2023-04-11T09:22:06.342Z,92993.09
2023-04-11T09:24:36.045Z,92993.31
2023-04-11T09:27:12.205Z,92978.69
2023-04-11T09:29:45.770Z,92990.75
2023-04-11T09:32:33.149Z,92993.16
2023-04-11T09:35:12.811Z,92983.50
2023-04-11T09:37:54.036Z,92979.38
2023-04-11T09:40:23.111Z,92974.09
2023-04-11T09:43:00.909Z,92977.50
2023-04-11T09:45:32.251Z,92965.19
2023-04-11T09:48:04.405Z,92960.75
2023-04-11T09:50:34.448Z,92953.59
2023-04-11T09:53:02.999Z,92946.66
2023-04-11T09:55:31.230Z,92944.59
2023-04-11T09:57:59.986Z,92934.00
2023-04-11T10:00:32.687Z,92933.63
2023-04-11T10:03:01.120Z,92923.03
2023-04-11T10:05:30.695Z,92918.75
2023-04-11T10:08:10.958Z,92901.91
2023-04-11T10:10:39.204Z,92912.06
2023-04-11T10:13:43.706Z,92912.28
2023-04-11T10:16:19.798Z,92900.44
2023-04-11T10:18:53.400Z,92922.19
2023-04-11T10:21:33.186Z,92923.44
2023-04-11T10:24:22.396Z,92920.22
2023-04-11T10:26:57.968Z,92910.47
2023-04-11T10:29:28.975Z,92907.19
2023-04-11T10:32:09.024Z,92893.53
2023-04-11T10:34:39.215Z,92885.88
2023-04-11T10:37:09.264Z,92884.88
2023-04-11T10:39:52.471Z,92885.06
2023-04-11T10:42:33.870Z,92869.94
2023-04-11T10:45:24.777Z,92868.44
2023-04-11T10:48:13.680Z,92862.06
2023-04-11T10:50:44.654Z,92863.56
2023-04-11T10:53:36.613Z,92860.63
2023-04-11T10:56:06.823Z,92871.31
2023-04-11T10:58:41.016Z,92860.78
2023-04-11T11:01:25.801Z,92869.06
2023-04-11T11:04:03.260Z,92865.13
2023-04-11T11:06:38.045Z,92862.34
2023-04-11T11:09:23.484Z,92854.34
2023-04-11T11:12:14.150Z,92848.53
2023-04-11T11:14:44.579Z,92844.09
2023-04-11T11:17:16.616Z,92837.84
2023-04-11T11:19:46.213Z,92848.31
2023-04-11T11:22:18.526Z,92844.53
2023-04-11T11:24:49.269Z,92833.16
2023-04-11T11:27:21.802Z,92830.19
2023-04-11T11:29:50.694Z,92818.97
2023-04-11T11:32:28.765Z,92827.50
2023-04-11T11:38:11.337Z,92823.47
2023-04-11T11:40:39.791Z,92811.28
2023-04-11T11:43:08.053Z,92809.53
2023-04-11T11:45:36.077Z,92806.22
2023-04-11T11:48:04.405Z,92811.16
2023-04-11T11:50:33.482Z,92813.59
2023-04-11T11:53:17.008Z,92808.47
2023-04-11T11:55:45.126Z,92819.47
2023-04-11T11:58:13.124Z,92814.56
2023-04-11T12:00:41.741Z,92808.28
2023-04-11T12:03:11.136Z,92809.53
2023-04-11T12:05:39.466Z,92800.84
2023-04-11T12:08:08.014Z,92796.97
2023-04-11T12:10:45.850Z,92787.25
2023-04-11T12:13:13.870Z,92782.59
2023-04-11T12:15:44.855Z,92786.81
2023-04-11T12:18:13.167Z,92778.91
2023-04-11T12:20:41.612Z,92778.28
2023-04-11T12:23:09.683Z,92774.50
2023-04-11T12:25:37.710Z,92760.75
2023-04-11T12:28:06.271Z,92774.84
2023-04-11T12:30:34.268Z,92777.41
2023-04-11T12:33:02.420Z,92766.72
2023-04-11T12:35:31.112Z,92765.34
2023-04-11T12:37:59.466Z,92760.59
2023-04-11T12:40:29.647Z,92753.88
2023-04-11T12:42:57.867Z,92736.09
2023-04-11T12:45:26.711Z,92751.56
2023-04-11T12:47:57.428Z,92750.25
2023-04-11T12:50:25.565Z,92749.91
2023-04-11T12:52:53.472Z,92734.03
2023-04-11T12:55:21.945Z,92737.94
2023-04-11T12:57:50.035Z,92724.53
2023-04-11T13:00:18.367Z,92735.34
2023-04-11T13:02:47.215Z,92737.69
2023-04-11T13:05:16.557Z,92712.66
2023-04-11T13:07:46.419Z,92731.13
2023-04-11T13:10:18.793Z,92730.72
2023-04-11T13:12:48.238Z,92724.03
2023-04-11T13:15:17.320Z,92715.75
2023-04-11T13:17:45.895Z,92709.56
2023-04-11T13:20:14.651Z,92707.81
2023-04-11T13:22:43.553Z,92714.44
2023-04-11T13:25:12.430Z,92698.50
2023-04-11T13:27:42.308Z,92704.72
2023-04-11T13:30:11.442Z,92694.44
2023-04-11T13:32:39.679Z,92699.13
2023-04-11T13:35:08.593Z,92692.22
2023-04-11T13:37:36.624Z,92690.59
2023-04-11T13:40:07.775Z,92699.84
2023-04-11T13:42:35.777Z,92696.53
2023-04-11T13:45:04.826Z,92698.25
2023-04-11T13:47:35.414Z,92678.75
2023-04-11T13:50:06.184Z,92682.97
2023-04-11T13:52:34.166Z,92690.44
2023-04-11T13:55:02.173Z,92688.19
2023-04-11T13:57:30.085Z,92685.34
2023-04-11T13:59:58.106Z,92688.97
2023-04-11T14:02:26.385Z,92682.97
2023-04-11T14:04:54.499Z,92694.72
2023-04-11T14:07:22.483Z,92691.19
2023-04-11T14:09:50.410Z,92690.03
2023-04-11T14:12:18.680Z,92680.50
2023-04-11T14:14:46.633Z,92683.63
2023-04-11T14:17:14.568Z,92681.03
2023-04-11T14:19:42.636Z,92690.03
2023-04-11T14:22:10.956Z,92681.47
2023-04-11T14:24:38.943Z,92682.88
2023-04-11T14:27:06.865Z,92682.63
2023-04-11T14:29:37.673Z,92690.03
2023-04-11T14:32:07.153Z,92683.59
2023-04-11T14:34:35.163Z,92685.75
2023-04-11T14:37:03.362Z,92689.59
2023-04-11T14:39:32.047Z,92677.84
2023-04-11T14:42:02.343Z,92684.09
2023-04-11T14:44:30.709Z,92661.44
2023-04-11T14:46:59.533Z,92689.47
2023-04-11T14:49:27.375Z,92676.44
2023-04-11T14:51:55.726Z,92684.25
2023-04-11T14:54:27.120Z,92678.59
2023-04-11T14:56:55.119Z,92675.72
2023-04-11T14:59:23.216Z,92675.16
2023-04-11T15:01:51.811Z,92671.81
2023-04-11T15:04:20.047Z,92683.38
2023-04-11T15:06:47.929Z,92671.88
2023-04-11T15:09:20.267Z,92670.34
2023-04-11T15:11:49.058Z,92674.31
2023-04-11T15:14:16.985Z,92657.59
2023-04-11T15:16:45.111Z,92671.34
2023-04-11T15:19:12.983Z,92666.47
2023-04-11T15:21:40.981Z,92666.56
2023-04-11T15:24:08.933Z,92676.47
2023-04-11T15:26:36.939Z,92680.13
2023-04-11T15:29:05.019Z,92674.88
2023-04-11T15:31:33.263Z,92671.88
2023-04-11T15:34:04.116Z,92675.84
2023-04-11T15:36:32.154Z,92684.91
2023-04-11T15:39:00.958Z,92671.09
2023-04-11T15:41:28.969Z,92661.34
2023-04-11T15:43:57.090Z,92671.75
2023-04-11T15:46:25.168Z,92666.53
2023-04-11T15:48:53.323Z,92657.97
2023-04-11T15:51:22.367Z,92667.63
2023-04-11T15:53:50.714Z,92666.88
2023-04-11T15:56:19.913Z,92668.53
2023-04-11T15:58:51.214Z,92676.03
2023-04-11T16:01:26.263Z,92681.94
2023-04-11T16:03:54.441Z,92671.78
2023-04-11T16:06:22.681Z,92670.78
2023-04-11T16:08:51.256Z,92660.16
2023-04-11T16:11:19.222Z,92680.72
2023-04-11T16:13:47.188Z,92677.78
2023-04-11T16:16:15.281Z,92679.38
2023-04-11T16:18:43.257Z,92671.44
2023-04-11T16:21:15.996Z,92681.50
2023-04-11T16:23:44.145Z,92690.59
2023-04-11T16:26:12.058Z,92678.88
2023-04-11T16:28:39.955Z,92673.28
2023-04-11T16:31:08.162Z,92675.44
2023-04-11T16:33:36.102Z,92673.88
2023-04-11T16:36:04.536Z,92671.50
2023-04-11T16:38:32.515Z,92669.63
2023-04-11T16:41:01.177Z,92669.38
2023-04-11T16:43:29.124Z,92660.03
2023-04-11T16:45:57.234Z,92666.69
2023-04-11T16:48:25.336Z,92670.72
2023-04-11T16:50:53.500Z,92672.56
2023-04-11T16:53:21.500Z,92679.78
2023-04-11T16:55:49.535Z,92682.16
2023-04-11T16:58:17.376Z,92687.47
2023-04-11T17:00:45.842Z,92673.38
2023-04-11T17:03:13.987Z,92674.97
2023-04-11T17:05:41.959Z,92682.16
2023-04-11T17:08:09.957Z,92681.34
2023-04-11T17:10:38.106Z,92687.75
2023-04-11T17:13:06.082Z,92682.41
2023-04-11T17:15:35.151Z,92683.75
2023-04-11T17:18:03.249Z,92687.47
2023-04-11T17:20:31.429Z,92686.94
2023-04-11T17:22:59.453Z,92693.34
2023-04-11T17:25:29.698Z,92688.00
2023-04-11T17:27:57.885Z,92692.28
2023-04-11T17:30:26.249Z,92697.59
2023-04-11T17:32:55.598Z,92690.94
2023-04-11T17:35:24.091Z,92689.06
2023-04-11T17:37:52.462Z,92692.00
2023-04-11T17:40:21.413Z,92699.69
2023-04-11T17:42:49.983Z,92697.81
2023-04-11T17:45:19.617Z,92699.41
2023-04-11T17:47:48.186Z,92696.50
2023-04-11T17:50:18.071Z,92700.50
2023-04-11T17:52:47.839Z,92703.94
2023-04-11T17:55:18.596Z,92707.38
2023-04-11T17:57:50.627Z,92711.91
2023-04-11T18:00:26.489Z,92708.19
2023-04-11T18:02:59.411Z,92716.16
2023-04-11T18:05:35.187Z,92718.28
2023-04-11T18:08:04.863Z,92710.34
2023-04-11T18:10:33.265Z,92725.75
2023-04-11T18:13:01.931Z,92724.69
2023-04-11T18:15:30.338Z,92720.44
2023-04-11T18:17:59.319Z,92713.78
2023-04-11T18:20:27.897Z,92737.16
2023-04-11T18:22:56.577Z,92723.31
2023-04-11T18:25:25.212Z,92713.50
2023-04-11T18:27:53.689Z,92710.81
2023-04-11T18:30:22.316Z,92734.75
2023-04-11T18:32:54.208Z,92733.16
2023-04-11T18:35:23.966Z,92732.38
2023-04-11T18:37:53.721Z,92745.13
2023-04-11T18:40:22.891Z,92729.16
2023-04-11T18:42:53.288Z,92740.88
2023-04-11T18:45:22.741Z,92746.72
2023-04-11T18:47:51.365Z,92749.13
2023-04-11T18:50:19.941Z,92745.13
2023-04-11T18:52:52.904Z,92748.59
2023-04-11T18:55:24.383Z,92753.13
2023-04-11T18:57:56.445Z,92749.13
2023-04-11T19:00:26.708Z,92750.22
2023-04-11T19:02:55.115Z,92741.69
2023-04-11T19:05:25.417Z,92737.69
2023-04-11T19:07:54.440Z,92739.56
2023-04-11T19:10:22.823Z,92752.88
2023-04-11T19:12:51.304Z,92745.16
2023-04-11T19:15:20.016Z,92748.88
2023-04-11T19:17:48.583Z,92738.81
2023-04-11T19:20:17.853Z,92735.56
2023-04-11T19:22:46.972Z,92741.69
2023-04-11T19:25:15.385Z,92730.25
2023-04-11T19:27:44.637Z,92743.28
2023-04-11T19:30:14.217Z,92733.94
2023-04-11T19:32:44.404Z,92731.56
2023-04-11T19:35:13.460Z,92730.22
2023-04-11T19:37:42.094Z,92722.78
2023-04-11T19:40:11.315Z,92728.34
2023-04-11T19:42:40.895Z,92720.63
2023-04-11T19:45:11.243Z,92718.50
2023-04-11T19:47:41.121Z,92705.72
2023-04-11T19:50:14.654Z,92715.81
2023-04-11T19:52:43.459Z,92709.69
2023-04-11T19:55:12.759Z,92714.72
2023-04-11T19:57:43.984Z,92715.75
2023-04-11T20:00:14.345Z,92713.34
2023-04-11T20:02:48.892Z,92708.28
2023-04-11T20:05:20.070Z,92717.84
2023-04-11T20:07:48.485Z,92715.66
2023-04-11T20:10:17.694Z,92720.97
2023-04-11T20:12:46.208Z,92726.56
2023-04-11T20:15:15.258Z,92722.81
2023-04-11T20:17:46.398Z,92709.53
2023-04-11T20:20:15.853Z,92708.41
2023-04-11T20:22:45.151Z,92704.97
2023-04-11T20:25:13.741Z,92708.41
2023-04-11T20:27:43.148Z,92699.59
2023-04-11T20:30:12.491Z,92688.16
2023-04-11T20:32:41.812Z,92681.53
2023-04-11T20:35:12.337Z,92687.63
2023-04-11T20:37:43.876Z,92693.63
2023-04-11T20:40:14.513Z,92702.06
2023-04-11T20:42:46.213Z,92698.38
2023-04-11T20:45:17.062Z,92691.19
2023-04-11T20:47:50.294Z,92698.88
2023-04-11T20:50:19.701Z,92693.00
2023-04-11T20:52:50.654Z,92691.66
2023-04-11T20:55:19.356Z,92693.25
2023-04-11T20:57:47.678Z,92684.16
2023-04-11T21:00:17.424Z,92691.88
2023-04-11T21:02:50.417Z,92690.81
2023-04-11T21:05:25.334Z,92688.72
2023-04-11T21:07:58.694Z,92685.25
2023-04-11T21:10:26.669Z,92684.50
2023-04-11T21:12:54.686Z,92679.72
2023-04-11T21:15:23.352Z,92676.22
2023-04-11T21:17:52.521Z,92699.91
2023-04-11T21:20:21.467Z,92688.22
2023-04-11T21:22:53.319Z,92685.00
2023-04-11T21:25:22.385Z,92693.22
2023-04-11T21:27:50.527Z,92687.91
2023-04-11T21:30:18.684Z,92690.00
2023-04-11T21:32:47.203Z,92697.44
2023-04-11T21:35:15.255Z,92693.19
2023-04-11T21:37:43.256Z,92690.53
2023-04-11T21:40:12.903Z,92679.09
2023-04-11T21:42:41.174Z,92680.66
2023-04-11T21:45:09.447Z,92692.91
2023-04-11T21:47:37.910Z,92687.59
2023-04-11T21:50:06.741Z,92679.09
2023-04-11T21:52:34.779Z,92686.50
2023-04-11T21:55:02.849Z,92675.13
2023-04-11T21:57:34.063Z,92692.44
2023-04-11T22:00:02.328Z,92684.94
2023-04-11T22:02:40.632Z,92689.56
2023-04-11T22:05:09.673Z,92695.09
2023-04-11T22:07:46.994Z,92684.25
2023-04-11T22:10:15.615Z,92691.22
2023-04-11T22:12:45.902Z,92695.72
2023-04-11T22:15:14.352Z,92678.47
2023-04-11T22:17:43.757Z,92682.22
2023-04-11T22:20:12.300Z,92688.91
2023-04-11T22:22:40.388Z,92672.19
2023-04-11T22:25:10.160Z,92680.16
2023-04-11T22:27:38.723Z,92680.44
2023-04-11T22:30:07.915Z,92687.63
2023-04-11T22:32:37.306Z,92679.41
2023-04-11T22:35:06.984Z,92679.91
2023-04-11T22:37:34.885Z,92677.78
2023-04-11T22:40:06.308Z,92681.53
2023-04-11T22:42:34.908Z,92678.59
2023-04-11T22:45:11.172Z,92673.03
2023-04-11T22:47:45.987Z,92680.44
2023-04-11T22:50:18.436Z,92677.53
2023-04-11T22:52:52.523Z,92672.50
2023-04-11T22:55:24.970Z,92671.44
2023-04-11T22:57:52.956Z,92665.84
2023-04-11T23:00:24.234Z,92663.72
2023-04-11T23:03:00.877Z,92662.66
2023-04-11T23:05:31.953Z,92655.53
2023-04-11T23:07:59.884Z,92648.59
2023-04-11T23:10:29.118Z,92643.03
2023-04-11T23:12:57.200Z,92649.41
2023-04-11T23:15:25.412Z,92645.69
2023-04-11T23:17:53.510Z,92649.41
2023-04-11T23:20:22.414Z,92643.81
2023-04-11T23:22:50.409Z,92650.41
2023-04-11T23:25:22.496Z,92637.72
2023-04-11T23:27:50.433Z,92651.25
2023-04-11T23:30:18.308Z,92647.53
2023-04-11T23:32:46.406Z,92639.28
2023-04-11T23:35:17.124Z,92629.19
2023-04-11T23:37:45.914Z,92637.16
2023-04-11T23:40:14.233Z,92634.25
2023-04-11T23:42:42.495Z,92621.50
2023-04-11T23:45:11.862Z,92618.59
2023-04-11T23:47:39.823Z,92618.28
2023-04-11T23:50:08.643Z,92612.19
2023-04-11T23:52:36.511Z,92606.34
2023-04-11T23:55:05.172Z,92606.84
2023-04-11T23:57:33.277Z,92599.38
